Time;durP1;ratioP1;P1;durP2;ratioP2;P2;SDS_P1;SDS_P2;PMS_P1;PMS_P2;Temp;Humidity;BMP_temperature;BMP_pressure;BME280_temperature;BME280_humidity;BME280_pressure;Samples;Min_cycle;Max_cycle;Signal;HPM_P1;HPM_P2
2024/01/12 00:01:23;;;;;;;5.38;0.98;;;;;;;;;;5024671;28;20049;-93
2024/01/12 00:03:56;;;;;;;7.35;1.10;;;;;;;;;;5027178;28;20057;-93
2024/01/12 00:06:48;;;;;;;2.53;0.90;;;;;;;;;;5025812;28;20061;-93
2024/01/12 00:14:14;;;;;;;5.80;1.00;;;;;;;;;;5106509;28;20506;-94
2024/01/12 00:17:31;;;;;;;3.20;1.00;;;;;;;;;;5089865;28;20047;-92
2024/01/12 00:20:05;;;;;;;3.17;0.90;;;;;;;;;;5078113;28;20048;-92
2024/01/12 00:23:43;;;;;;;2.08;0.90;;;;;;;;;;5061341;28;20063;-92
2024/01/12 00:27:23;;;;;;;3.80;1.25;;;;;;;;;;5062362;28;20055;-92
2024/01/12 00:30:48;;;;;;;2.17;0.98;;;;;;;;;;5081211;28;20057;-94
2024/01/12 00:34:08;;;;;;;3.50;0.90;;;;;;;;;;5083800;28;20044;-94
2024/01/12 00:42:13;;;;;;;1.75;0.80;;;;;;;;;;5091788;28;20040;-94
2024/01/12 00:45:50;;;;;;;4.13;1.00;;;;;;;;;;5061307;28;20037;-92
2024/01/12 00:48:21;;;;;;;5.30;1.25;;;;;;;;;;5043563;28;20491;-90
2024/01/12 00:50:51;;;;;;;5.35;0.90;;;;;;;;;;5024297;28;20059;-92
2024/01/12 00:53:23;;;;;;;2.55;0.95;;;;;;;;;;5031723;28;20048;-90
2024/01/12 00:55:54;;;;;;;4.88;1.20;;;;;;;;;;5029384;28;20064;-91
2024/01/12 00:58:25;;;;;;;4.03;1.10;;;;;;;;;;5016909;28;20052;-92
2024/01/12 01:00:55;;;;;;;5.63;1.00;;;;;;;;;;5047312;28;20064;-91
2024/01/12 01:03:25;;;;;;;6.00;0.65;;;;;;;;;;5022952;28;20053;-93
2024/01/12 01:05:56;;;;;;;2.60;1.08;;;;;;;;;;5051100;28;20045;-93
2024/01/12 01:08:26;;;;;;;2.00;1.15;;;;;;;;;;5032676;28;20045;-92
2024/01/12 01:10:57;;;;;;;6.47;1.50;;;;;;;;;;5021856;28;20053;-93
2024/01/12 01:13:27;;;;;;;3.47;0.90;;;;;;;;;;5042551;28;20056;-91
2024/01/12 01:15:58;;;;;;;3.47;1.02;;;;;;;;;;5043777;28;20048;-92
2024/01/12 01:18:30;;;;;;;2.88;1.10;;;;;;;;;;5056700;28;20056;-92
2024/01/12 01:21:05;;;;;;;5.43;1.40;;;;;;;;;;5044331;28;20056;-92
2024/01/12 01:23:35;;;;;;;3.38;0.80;;;;;;;;;;5035723;28;20052;-90
2024/01/12 01:26:07;;;;;;;2.42;0.80;;;;;;;;;;5029138;28;20060;-93
2024/01/12 01:29:03;;;;;;;6.43;1.15;;;;;;;;;;5061532;28;20063;-91
2024/01/12 01:31:33;;;;;;;3.45;0.82;;;;;;;;;;5026831;28;20063;-93
2024/01/12 01:34:30;;;;;;;6.20;0.75;;;;;;;;;;5008158;28;20517;-93
2024/01/12 01:37:50;;;;;;;3.63;1.10;;;;;;;;;;4988411;28;20066;-92
2024/01/12 01:40:24;;;;;;;4.30;0.93;;;;;;;;;;4954094;29;20090;-91
2024/01/12 01:42:56;;;;;;;1.90;0.98;;;;;;;;;;4971116;28;20058;-91
2024/01/12 01:45:26;;;;;;;6.22;1.00;;;;;;;;;;4974188;28;20452;-93
2024/01/12 01:47:56;;;;;;;2.45;0.90;;;;;;;;;;5026053;28;20045;-92
2024/01/12 01:50:27;;;;;;;4.78;1.20;;;;;;;;;;5025233;28;20065;-93
2024/01/12 01:52:57;;;;;;;4.38;1.42;;;;;;;;;;5012512;28;20049;-91
2024/01/12 01:55:30;;;;;;;2.10;1.10;;;;;;;;;;4998958;28;20054;-92
2024/01/12 01:58:41;;;;;;;7.75;1.23;;;;;;;;;;5016213;28;20081;-93
2024/01/12 02:01:27;;;;;;;3.63;1.50;;;;;;;;;;5013489;28;20050;-93
2024/01/12 02:04:06;;;;;;;4.13;1.30;;;;;;;;;;5018011;28;20067;-93
2024/01/12 02:07:04;;;;;;;3.30;1.35;;;;;;;;;;5061000;28;20052;-91
2024/01/12 02:09:51;;;;;;;3.30;1.40;;;;;;;;;;5040486;28;20059;-91
2024/01/12 02:13:16;;;;;;;4.43;2.10;;;;;;;;;;5059871;28;20061;-91
2024/01/12 02:16:17;;;;;;;2.40;1.00;;;;;;;;;;5070361;28;20411;-91
2024/01/12 02:19:23;;;;;;;2.78;1.05;;;;;;;;;;5071925;28;20045;-93
2024/01/12 02:22:23;;;;;;;5.00;1.13;;;;;;;;;;5040149;28;20402;-93
2024/01/12 02:55:16;;;;;;;5.80;2.85;;;;;;;;;;4905763;29;20057;-93
2024/01/12 02:57:59;;;;;;;5.13;1.80;;;;;;;;;;4921274;29;20059;-92
2024/01/12 03:00:30;;;;;;;5.30;1.20;;;;;;;;;;4921890;29;20078;-92
2024/01/12 03:03:03;;;;;;;3.75;1.73;;;;;;;;;;4973109;28;20081;-94
2024/01/12 03:05:37;;;;;;;6.82;1.58;;;;;;;;;;4956656;29;20128;-93
2024/01/12 03:12:44;;;;;;;8.63;1.70;;;;;;;;;;4999536;28;20046;-94
2024/01/12 03:15:17;;;;;;;5.68;1.80;;;;;;;;;;5011913;28;20513;-93
2024/01/12 03:27:26;;;;;;;2.95;1.20;;;;;;;;;;5040042;28;20399;-94
2024/01/12 03:40:04;;;;;;;4.50;1.33;;;;;;;;;;4982397;28;20043;-94
2024/01/12 03:48:46;;;;;;;;;;;;;;;;;;;;;
2024/01/12 03:52:10;;;;;;;4.65;1.20;;;;;;;;;;4921546;29;20048;-93
2024/01/12 03:54:44;;;;;;;6.40;1.50;;;;;;;;;;4919182;29;20052;-92
2024/01/12 03:57:14;;;;;;;7.35;1.55;;;;;;;;;;4905573;28;20523;-95
2024/01/12 03:59:46;;;;;;;7.60;1.50;;;;;;;;;;4975403;28;20524;-93
2024/01/12 04:02:16;;;;;;;5.82;2.13;;;;;;;;;;5014877;28;20049;-93
2024/01/12 04:05:14;;;;;;;5.55;1.23;;;;;;;;;;5017954;28;20053;-94
2024/01/12 04:16:19;;;;;;;4.88;2.10;;;;;;;;;;5036585;28;20041;-93
2024/01/12 04:22:26;;;;;;;6.95;2.17;;;;;;;;;;4993780;28;20053;-93
2024/01/12 04:24:57;;;;;;;5.75;1.80;;;;;;;;;;4978095;28;20491;-91
2024/01/12 04:32:47;;;;;;;4.30;1.63;;;;;;;;;;4972003;28;20055;-94
2024/01/12 04:35:50;;;;;;;6.13;1.60;;;;;;;;;;4915124;29;20059;-91
2024/01/12 04:38:40;;;;;;;4.65;1.65;;;;;;;;;;4957618;28;20517;-93
2024/01/12 04:41:34;;;;;;;5.63;1.75;;;;;;;;;;4973176;28;20055;-93
2024/01/12 04:44:18;;;;;;;5.38;1.63;;;;;;;;;;4958175;28;20050;-93
2024/01/12 04:46:52;;;;;;;9.05;2.33;;;;;;;;;;4957368;28;20560;-94
2024/01/12 04:49:26;;;;;;;4.97;1.77;;;;;;;;;;4983094;28;20051;-92
2024/01/12 04:52:23;;;;;;;4.28;1.90;;;;;;;;;;4957292;28;20055;-93
2024/01/12 04:54:53;;;;;;;4.68;2.03;;;;;;;;;;4951016;28;20497;-93
2024/01/12 04:57:26;;;;;;;9.38;2.22;;;;;;;;;;4978280;28;20066;-92
2024/01/12 05:00:23;;;;;;;10.60;2.38;;;;;;;;;;5040112;28;20053;-92
2024/01/12 05:04:14;;;;;;;8.38;1.95;;;;;;;;;;5040181;28;20047;-93
2024/01/12 05:11:41;;;;;;;5.85;1.90;;;;;;;;;;4951336;28;20071;-92
2024/01/12 05:14:20;;;;;;;7.25;2.00;;;;;;;;;;4958193;28;20509;-91
2024/01/12 05:16:50;;;;;;;5.47;1.98;;;;;;;;;;4941165;28;20071;-91
2024/01/12 05:19:20;;;;;;;5.25;1.80;;;;;;;;;;4956676;28;20452;-91
2024/01/12 05:21:50;;;;;;;9.55;2.58;;;;;;;;;;4941532;28;20055;-91
2024/01/12 05:24:20;;;;;;;4.80;1.73;;;;;;;;;;4956222;28;20382;-91
2024/01/12 05:26:51;;;;;;;6.55;1.88;;;;;;;;;;4957241;28;20055;-92
2024/01/12 05:29:23;;;;;;;4.07;1.75;;;;;;;;;;4956965;28;20050;-93
2024/01/12 05:31:53;;;;;;;7.30;1.80;;;;;;;;;;4941124;28;20055;-93
2024/01/12 05:34:23;;;;;;;6.47;1.98;;;;;;;;;;4958265;28;20062;-92
2024/01/12 05:36:53;;;;;;;8.98;2.08;;;;;;;;;;4957301;28;20051;-91
2024/01/12 05:39:23;;;;;;;8.65;2.00;;;;;;;;;;4956858;28;20151;-92
2024/01/12 05:41:54;;;;;;;6.07;2.42;;;;;;;;;;4993556;28;20053;-92
2024/01/12 05:44:25;;;;;;;9.75;3.30;;;;;;;;;;5060108;28;20064;-92
2024/01/12 05:46:55;;;;;;;7.70;2.72;;;;;;;;;;5065871;28;20491;-91
2024/01/12 05:49:26;;;;;;;6.25;3.08;;;;;;;;;;5056574;28;20053;-92
2024/01/12 05:51:56;;;;;;;9.00;2.60;;;;;;;;;;5035118;28;20053;-91
2024/01/12 05:54:28;;;;;;;7.95;2.80;;;;;;;;;;5029843;28;20064;-90
2024/01/12 05:56:58;;;;;;;5.18;2.65;;;;;;;;;;5038802;28;20376;-90
2024/01/12 05:59:29;;;;;;;6.72;2.72;;;;;;;;;;5038684;28;20412;-90
2024/01/12 06:01:59;;;;;;;11.73;2.83;;;;;;;;;;5022387;28;20219;-89
2024/01/12 06:04:29;;;;;;;9.73;3.00;;;;;;;;;;5038531;28;20061;-91
2024/01/12 06:06:59;;;;;;;6.47;2.85;;;;;;;;;;5039219;28;20079;-90
2024/01/12 06:09:30;;;;;;;6.88;3.13;;;;;;;;;;5038242;28;20487;-90
2024/01/12 06:12:02;;;;;;;11.25;3.63;;;;;;;;;;5037928;28;20053;-91
2024/01/12 06:14:32;;;;;;;7.82;3.20;;;;;;;;;;5054127;28;20048;-90
2024/01/12 06:17:05;;;;;;;12.57;3.28;;;;;;;;;;5038140;28;20049;-90
2024/01/12 06:19:36;;;;;;;7.70;3.03;;;;;;;;;;5038208;28;20056;-92
2024/01/12 06:22:09;;;;;;;7.47;3.38;;;;;;;;;;5021671;28;20063;-94
2024/01/12 06:24:39;;;;;;;12.30;3.20;;;;;;;;;;5056284;28;20143;-91
2024/01/12 06:27:09;;;;;;;8.77;3.20;;;;;;;;;;5038009;28;20399;-91
2024/01/12 06:29:41;;;;;;;;;;;;;;;;;;5038641;28;20053;-92
2024/01/12 06:32:11;;;;;;;6.90;2.70;;;;;;;;;;5022743;28;19921;-91
2024/01/12 06:34:42;;;;;;;5.45;2.75;;;;;;;;;;5039082;28;20053;-91
2024/01/12 06:37:13;;;;;;;8.32;2.15;;;;;;;;;;5037869;28;20053;-91
2024/01/12 06:39:44;;;;;;;6.30;1.80;;;;;;;;;;5037438;28;20487;-90
2024/01/12 06:42:15;;;;;;;6.13;2.10;;;;;;;;;;5021488;28;20060;-90
2024/01/12 06:44:46;;;;;;;11.07;1.95;;;;;;;;;;5038574;28;20395;-90
2024/01/12 06:47:17;;;;;;;5.90;1.90;;;;;;;;;;5037620;28;20064;-90
2024/01/12 06:49:48;;;;;;;6.13;2.00;;;;;;;;;;5039515;28;20060;-90
2024/01/12 06:52:19;;;;;;;8.55;2.20;;;;;;;;;;5057839;28;20053;-93
2024/01/12 06:54:50;;;;;;;6.60;2.13;;;;;;;;;;5058589;28;20053;-92
2024/01/12 06:57:20;;;;;;;7.18;2.42;;;;;;;;;;5075800;28;20406;-93
2024/01/12 06:59:50;;;;;;;6.93;2.20;;;;;;;;;;5040916;28;20052;-93
2024/01/12 07:02:20;;;;;;;6.25;2.60;;;;;;;;;;5058466;28;20056;-93
2024/01/12 07:04:51;;;;;;;5.55;2.28;;;;;;;;;;5041937;28;20059;-91
2024/01/12 07:07:22;;;;;;;7.10;2.03;;;;;;;;;;5058547;28;20052;-91
2024/01/12 07:09:52;;;;;;;8.93;2.65;;;;;;;;;;5042943;28;20407;-91
2024/01/12 07:12:23;;;;;;;6.47;2.30;;;;;;;;;;5041482;28;20058;-90
2024/01/12 07:14:55;;;;;;;8.15;2.83;;;;;;;;;;5041979;28;20053;-92
2024/01/12 07:17:26;;;;;;;10.18;2.63;;;;;;;;;;5050104;28;20059;-92
2024/01/12 07:19:56;;;;;;;8.63;2.80;;;;;;;;;;5059395;28;20375;-91
2024/01/12 07:22:26;;;;;;;7.65;2.92;;;;;;;;;;5058286;28;20430;-91
2024/01/12 07:24:56;;;;;;;11.13;2.70;;;;;;;;;;5037921;28;20056;-92
2024/01/12 07:27:27;;;;;;;8.07;2.63;;;;;;;;;;5030654;28;20056;-91
2024/01/12 07:29:58;;;;;;;6.80;3.00;;;;;;;;;;5054600;28;20059;-91
2024/01/12 07:32:28;;;;;;;7.88;2.67;;;;;;;;;;5045750;28;20052;-92
2024/01/12 07:34:58;;;;;;;5.88;2.35;;;;;;;;;;5065191;28;20052;-91
2024/01/12 07:37:29;;;;;;;6.15;2.40;;;;;;;;;;5062744;28;20072;-90
2024/01/12 07:39:59;;;;;;;5.60;2.17;;;;;;;;;;5043047;28;20052;-91
2024/01/12 07:42:31;;;;;;;6.22;2.50;;;;;;;;;;5049894;28;20446;-90
2024/01/12 07:45:02;;;;;;;5.90;2.40;;;;;;;;;;5057495;28;20399;-92
2024/01/12 07:47:32;;;;;;;8.07;2.60;;;;;;;;;;5056119;28;20052;-90
2024/01/12 07:50:02;;;;;;;9.48;2.42;;;;;;;;;;5056262;28;20498;-90
2024/01/12 07:52:32;;;;;;;5.15;2.13;;;;;;;;;;5057331;28;20391;-91
2024/01/12 07:55:03;;;;;;;5.70;1.98;;;;;;;;;;5056201;28;20057;-90
2024/01/12 07:57:34;;;;;;;9.65;2.15;;;;;;;;;;5039841;28;20057;-92
2024/01/12 08:00:05;;;;;;;7.28;2.40;;;;;;;;;;5055926;28;20059;-91
2024/01/12 08:02:42;;;;;;;6.97;2.30;;;;;;;;;;5058105;28;20075;-90
2024/01/12 08:05:15;;;;;;;4.55;2.20;;;;;;;;;;5056394;28;20122;-90
2024/01/12 08:07:47;;;;;;;5.45;2.22;;;;;;;;;;5058475;28;20049;-91
2024/01/12 08:10:18;;;;;;;8.77;2.25;;;;;;;;;;5042582;28;20064;-91
2024/01/12 08:12:51;;;;;;;5.10;2.63;;;;;;;;;;5039812;28;20044;-87
2024/01/12 08:15:22;;;;;;;9.15;2.95;;;;;;;;;;5055302;28;20064;-91
2024/01/12 08:17:53;;;;;;;6.28;2.92;;;;;;;;;;5039150;28;20048;-91
2024/01/12 08:20:26;;;;;;;7.90;3.28;;;;;;;;;;5055118;28;20131;-91
2024/01/12 08:22:57;;;;;;;7.03;3.30;;;;;;;;;;5055461;28;20060;-91
2024/01/12 08:25:28;;;;;;;7.18;2.65;;;;;;;;;;5039605;28;20065;-91
2024/01/12 08:27:58;;;;;;;6.90;2.50;;;;;;;;;;5040033;28;20053;-92
2024/01/12 08:30:28;;;;;;;9.13;2.85;;;;;;;;;;5030154;28;20659;-90
2024/01/12 08:32:59;;;;;;;8.07;2.78;;;;;;;;;;5032728;28;20079;-92
2024/01/12 08:35:31;;;;;;;12.13;3.55;;;;;;;;;;5038421;28;20051;-90
2024/01/12 08:38:01;;;;;;;5.53;2.75;;;;;;;;;;5044993;28;20053;-91
2024/01/12 08:40:32;;;;;;;9.48;2.90;;;;;;;;;;5054982;28;20052;-89
2024/01/12 08:43:02;;;;;;;9.35;2.88;;;;;;;;;;5038683;28;20061;-90
2024/01/12 08:45:34;;;;;;;7.38;3.05;;;;;;;;;;5022724;28;20115;-89
2024/01/12 08:48:07;;;;;;;8.65;2.78;;;;;;;;;;5054987;28;20070;-92
2024/01/12 08:50:38;;;;;;;8.60;2.83;;;;;;;;;;5066537;28;20525;-90
2024/01/12 08:53:09;;;;;;;11.32;3.00;;;;;;;;;;5049519;28;20052;-91
2024/01/12 08:55:40;;;;;;;14.25;4.28;;;;;;;;;;5058314;28;20051;-89
2024/01/12 08:58:11;;;;;;;9.20;2.97;;;;;;;;;;5043512;28;20060;-91
2024/01/12 09:00:44;;;;;;;8.93;2.42;;;;;;;;;;5053719;28;20055;-90
2024/01/12 09:03:15;;;;;;;12.75;2.60;;;;;;;;;;5036809;28;20048;-91
2024/01/12 09:05:46;;;;;;;9.48;2.65;;;;;;;;;;5055953;28;20781;-91
2024/01/12 09:08:17;;;;;;;8.35;2.38;;;;;;;;;;5037037;28;20055;-90
2024/01/12 09:10:48;;;;;;;10.95;2.15;;;;;;;;;;5057714;28;20045;-90
2024/01/12 09:13:18;;;;;;;9.25;2.72;;;;;;;;;;5054969;28;20044;-89
2024/01/12 09:15:50;;;;;;;5.35;2.15;;;;;;;;;;5035195;28;20052;-90
2024/01/12 09:18:21;;;;;;;3.63;1.92;;;;;;;;;;5039506;28;20056;-88
2024/01/12 09:20:52;;;;;;;5.80;2.50;;;;;;;;;;5036586;28;20064;-89
2024/01/12 09:23:22;;;;;;;4.20;2.15;;;;;;;;;;5054019;28;20072;-89
2024/01/12 09:25:54;;;;;;;6.07;2.13;;;;;;;;;;5058159;28;20059;-89
2024/01/12 09:28:25;;;;;;;9.48;2.17;;;;;;;;;;5076615;28;20790;-91
2024/01/12 09:30:55;;;;;;;8.27;2.28;;;;;;;;;;5063937;28;20056;-89
2024/01/12 09:33:26;;;;;;;5.97;1.92;;;;;;;;;;5057582;28;20053;-91
2024/01/12 09:35:57;;;;;;;5.15;2.47;;;;;;;;;;5041643;28;20498;-89
2024/01/12 09:38:31;;;;;;;7.43;2.15;;;;;;;;;;5079320;28;20051;-90
2024/01/12 09:41:03;;;;;;;11.07;2.22;;;;;;;;;;5042461;28;20048;-90
2024/01/12 09:43:36;;;;;;;5.22;2.85;;;;;;;;;;5056019;28;20059;-88
2024/01/12 09:46:09;;;;;;;7.30;2.80;;;;;;;;;;5035623;28;20423;-88
2024/01/12 09:48:42;;;;;;;6.22;2.55;;;;;;;;;;5056532;28;20048;-91
2024/01/12 09:51:16;;;;;;;8.48;2.20;;;;;;;;;;5055311;28;20836;-90
2024/01/12 09:53:48;;;;;;;6.47;2.70;;;;;;;;;;5055617;28;20542;-90
2024/01/12 09:56:20;;;;;;;7.22;2.35;;;;;;;;;;5047872;28;20064;-90
2024/01/12 09:59:03;;;;;;;10.25;2.72;;;;;;;;;;5053057;28;20056;-90
2024/01/12 10:01:37;;;;;;;5.18;2.33;;;;;;;;;;5035224;28;20492;-90
2024/01/12 10:04:11;;;;;;;5.88;2.45;;;;;;;;;;5035830;28;20049;-91
2024/01/12 10:06:43;;;;;;;7.88;2.85;;;;;;;;;;5035522;28;20056;-90
2024/01/12 10:09:25;;;;;;;7.20;2.50;;;;;;;;;;5052035;28;20060;-89
2024/01/12 10:11:57;;;;;;;7.55;2.28;;;;;;;;;;5053291;28;20053;-90
2024/01/12 10:14:28;;;;;;;6.32;2.38;;;;;;;;;;5051471;28;20379;-88
2024/01/12 10:17:00;;;;;;;7.15;2.40;;;;;;;;;;5053552;28;20167;-89
2024/01/12 10:19:32;;;;;;;5.95;2.20;;;;;;;;;;5051796;28;20507;-87
2024/01/12 10:22:06;;;;;;;5.60;2.13;;;;;;;;;;5035044;28;20414;-90
2024/01/12 10:24:39;;;;;;;9.50;2.20;;;;;;;;;;5038080;28;20045;-89
2024/01/12 10:27:13;;;;;;;7.43;2.03;;;;;;;;;;5056280;28;20047;-89
2024/01/12 10:29:46;;;;;;;8.15;2.03;;;;;;;;;;5056640;28;20068;-87
2024/01/12 10:32:20;;;;;;;5.63;2.10;;;;;;;;;;5060819;28;20040;-88
2024/01/12 10:34:53;;;;;;;6.70;2.20;;;;;;;;;;5038190;28;20052;-85
2024/01/12 10:37:25;;;;;;;9.45;2.33;;;;;;;;;;5035724;28;20036;-87
2024/01/12 10:40:06;;;;;;;5.65;2.22;;;;;;;;;;5052886;28;20064;-88
2024/01/12 10:42:39;;;;;;;9.05;3.03;;;;;;;;;;5034635;28;20080;-88
2024/01/12 10:45:12;;;;;;;5.28;2.30;;;;;;;;;;5018629;28;20059;-89
2024/01/12 10:47:57;;;;;;;6.47;2.28;;;;;;;;;;5056430;28;20052;-88
2024/01/12 10:50:32;;;;;;;;;;;;;;;;;;5056945;28;20060;-89
2024/01/12 10:53:18;;;;;;;7.60;1.92;;;;;;;;;;5072139;28;20275;-85
2024/01/12 10:55:53;;;;;;;6.55;2.17;;;;;;;;;;5069204;28;20056;-86
2024/01/12 10:58:25;;;;;;;4.53;2.20;;;;;;;;;;5057830;28;20051;-85
2024/01/12 11:00:56;;;;;;;6.88;1.88;;;;;;;;;;5057729;28;20055;-88
2024/01/12 11:03:28;;;;;;;6.18;2.65;;;;;;;;;;5058374;28;20049;-89
2024/01/12 11:06:00;;;;;;;8.93;1.92;;;;;;;;;;5057439;28;20372;-88
2024/01/12 11:08:31;;;;;;;5.82;2.63;;;;;;;;;;5056748;28;20384;-87
2024/01/12 11:11:05;;;;;;;3.45;2.00;;;;;;;;;;5056812;28;20496;-87
2024/01/12 11:13:38;;;;;;;7.03;2.20;;;;;;;;;;5073533;28;20048;-91
2024/01/12 11:16:08;;;;;;;4.13;2.05;;;;;;;;;;5055825;28;20060;-87
2024/01/12 11:18:39;;;;;;;6.18;2.03;;;;;;;;;;5075319;28;20049;-90
2024/01/12 11:21:11;;;;;;;4.30;2.22;;;;;;;;;;5057540;28;20043;-87
2024/01/12 11:23:44;;;;;;;5.80;2.95;;;;;;;;;;5076653;28;20410;-85
2024/01/12 11:26:15;;;;;;;6.00;2.33;;;;;;;;;;5058894;28;20062;-87
2024/01/12 11:28:46;;;;;;;5.28;2.35;;;;;;;;;;5056699;28;20055;-87
2024/01/12 11:31:28;;;;;;;7.00;2.75;;;;;;;;;;5073327;28;20048;-88
2024/01/12 11:34:03;;;;;;;4.82;2.65;;;;;;;;;;5075608;28;20040;-88
2024/01/12 11:36:33;;;;;;;8.43;2.22;;;;;;;;;;5045565;28;20060;-90
2024/01/12 11:39:05;;;;;;;5.53;2.90;;;;;;;;;;5074106;28;20502;-87
2024/01/12 11:41:35;;;;;;;;;;;;;;;;;;5074425;28;20048;-87
2024/01/12 11:44:06;;;;;;;5.35;2.58;;;;;;;;;;5074859;28;20290;-87
2024/01/12 11:46:40;;;;;;;6.68;2.60;;;;;;;;;;5076975;28;20395;-89
2024/01/12 11:49:11;;;;;;;4.53;2.63;;;;;;;;;;5077845;28;20044;-88
2024/01/12 11:51:43;;;;;;;4.93;2.97;;;;;;;;;;5071124;28;20049;-86
2024/01/12 11:54:15;;;;;;;6.43;2.80;;;;;;;;;;5072008;28;20040;-87
2024/01/12 11:56:45;;;;;;;7.07;2.95;;;;;;;;;;5071857;28;20053;-87
2024/01/12 11:59:15;;;;;;;4.28;2.33;;;;;;;;;;5075047;28;20495;-89
2024/01/12 12:01:46;;;;;;;4.18;2.72;;;;;;;;;;5075413;28;20402;-87
2024/01/12 12:04:19;;;;;;;5.00;3.22;;;;;;;;;;5074981;28;20051;-87
2024/01/12 12:06:52;;;;;;;6.15;2.83;;;;;;;;;;5037277;28;20414;-88
2024/01/12 12:09:23;;;;;;;5.05;2.20;;;;;;;;;;5031666;28;20055;-90
2024/01/12 12:11:53;;;;;;;4.70;2.80;;;;;;;;;;5061942;28;20060;-89
2024/01/12 12:14:24;;;;;;;5.15;2.70;;;;;;;;;;5038455;28;20048;-88
2024/01/12 12:16:54;;;;;;;5.43;2.25;;;;;;;;;;5055169;28;20056;-89
2024/01/12 12:19:25;;;;;;;4.20;2.30;;;;;;;;;;5038487;28;20075;-90
2024/01/12 12:21:58;;;;;;;4.20;2.30;;;;;;;;;;5056023;28;20052;-90
2024/01/12 12:24:29;;;;;;;;;;;;;;;;;;5055475;28;20044;-91
2024/01/12 12:27:00;;;;;;;5.05;2.63;;;;;;;;;;5038455;28;20374;-89
2024/01/12 12:29:30;;;;;;;4.70;2.28;;;;;;;;;;5072176;28;20060;-89
2024/01/12 12:32:01;;;;;;;5.72;2.38;;;;;;;;;;5071735;28;20043;-88
2024/01/12 12:34:32;;;;;;;7.32;3.05;;;;;;;;;;5057556;28;20048;-89
2024/01/12 12:37:08;;;;;;;7.15;2.13;;;;;;;;;;5074074;28;20421;-88
2024/01/12 12:39:39;;;;;;;5.07;2.15;;;;;;;;;;5058958;28;20048;-88
2024/01/12 12:42:10;;;;;;;4.30;2.38;;;;;;;;;;5075280;28;20048;-87
2024/01/12 12:44:43;;;;;;;5.53;2.03;;;;;;;;;;5076715;28;20399;-88
2024/01/12 12:47:17;;;;;;;4.53;1.80;;;;;;;;;;5093534;28;20036;-87
2024/01/12 12:49:48;;;;;;;;;;;;;;;;;;5076074;28;20059;-88
2024/01/12 12:52:18;;;;;;;3.75;2.13;;;;;;;;;;5075585;28;19927;-89
2024/01/12 12:54:50;;;;;;;7.05;2.70;;;;;;;;;;5062174;28;20056;-88
2024/01/12 12:57:21;;;;;;;6.65;3.80;;;;;;;;;;5075660;28;20482;-87
2024/01/12 12:59:52;;;;;;;7.88;3.45;;;;;;;;;;5076204;28;20394;-91
2024/01/12 13:02:24;;;;;;;3.78;2.33;;;;;;;;;;5073569;28;20041;-92
2024/01/12 13:04:55;;;;;;;5.30;2.47;;;;;;;;;;5058744;28;20471;-92
2024/01/12 13:07:25;;;;;;;6.03;1.85;;;;;;;;;;5079054;28;20056;-92
2024/01/12 13:10:00;;;;;;;6.28;2.10;;;;;;;;;;5079143;28;20055;-90
2024/01/12 13:12:32;;;;;;;4.95;1.60;;;;;;;;;;5078830;28;20490;-89
2024/01/12 13:15:03;;;;;;;2.83;1.67;;;;;;;;;;5062192;28;20055;-89
2024/01/12 13:17:35;;;;;;;;;;;;;;;;;;5061684;28;20044;-88
2024/01/12 13:20:06;;;;;;;4.13;1.80;;;;;;;;;;5078803;28;20378;-87
2024/01/12 13:22:37;;;;;;;2.35;1.52;;;;;;;;;;5062724;28;20071;-90
2024/01/12 13:25:09;;;;;;;4.43;1.95;;;;;;;;;;5062507;28;20044;-87
2024/01/12 13:27:40;;;;;;;4.72;2.00;;;;;;;;;;5079386;28;20044;-88
2024/01/12 13:30:11;;;;;;;4.57;2.00;;;;;;;;;;5078866;28;20063;-90
2024/01/12 13:32:42;;;;;;;4.18;1.95;;;;;;;;;;5079062;28;20056;-88
2024/01/12 13:35:13;;;;;;;3.97;1.70;;;;;;;;;;5079885;28;20048;-88
2024/01/12 13:37:43;;;;;;;2.15;1.40;;;;;;;;;;5078565;28;20059;-88
2024/01/12 13:40:14;;;;;;;3.08;1.40;;;;;;;;;;5062926;28;20044;-90
2024/01/12 13:42:47;;;;;;;2.40;1.33;;;;;;;;;;5061933;28;20078;-88
2024/01/12 13:45:18;;;;;;;2.17;1.38;;;;;;;;;;5078798;28;20047;-86
2024/01/12 13:47:49;;;;;;;2.25;1.15;;;;;;;;;;5077268;28;20398;-88
2024/01/12 13:50:19;;;;;;;2.88;1.50;;;;;;;;;;5077028;28;20060;-87
2024/01/12 13:52:49;;;;;;;2.95;1.25;;;;;;;;;;5077650;28;20474;-87
2024/01/12 13:55:19;;;;;;;6.03;1.33;;;;;;;;;;5061283;28;20048;-89
2024/01/12 13:57:51;;;;;;;5.07;1.45;;;;;;;;;;5062322;28;20047;-89
2024/01/12 14:00:22;;;;;;;4.15;1.30;;;;;;;;;;5062368;28;20055;-89
2024/01/12 14:02:53;;;;;;;3.28;1.33;;;;;;;;;;5078646;28;20040;-89
2024/01/12 14:05:23;;;;;;;3.95;1.58;;;;;;;;;;5077857;28;20070;-90
2024/01/12 14:07:53;;;;;;;3.03;1.35;;;;;;;;;;5096325;28;20410;-91
2024/01/12 14:10:26;;;;;;;2.95;1.35;;;;;;;;;;5062171;28;20052;-89
2024/01/12 14:12:58;;;;;;;7.28;1.45;;;;;;;;;;5078385;28;20048;-89
2024/01/12 14:15:29;;;;;;;3.28;1.60;;;;;;;;;;5060217;28;20048;-90
2024/01/12 14:18:01;;;;;;;3.13;1.30;;;;;;;;;;5057798;28;20060;-90
2024/01/12 14:20:35;;;;;;;2.50;1.17;;;;;;;;;;5041337;28;20056;-91
2024/01/12 14:23:07;;;;;;;2.53;1.75;;;;;;;;;;5058514;28;20051;-89
2024/01/12 14:25:37;;;;;;;55.10;15.48;;;;;;;;;;5057783;28;20052;-92
2024/01/12 14:28:08;;;;;;;3.13;1.38;;;;;;;;;;5041661;28;20479;-89
2024/01/12 14:30:56;;;;;;;2.88;1.00;;;;;;;;;;5044502;28;20629;-91
2024/01/12 14:33:33;;;;;;;2.92;1.45;;;;;;;;;;5058274;28;20053;-92
2024/01/12 14:36:05;;;;;;;3.88;1.40;;;;;;;;;;5041334;28;20064;-90
2024/01/12 14:38:39;;;;;;;4.03;1.60;;;;;;;;;;5042046;28;20510;-88
2024/01/12 14:41:11;;;;;;;3.28;1.38;;;;;;;;;;5057827;28;20045;-93
2024/01/12 14:43:42;;;;;;;3.13;1.35;;;;;;;;;;5051725;28;20049;-89
2024/01/12 14:46:25;;;;;;;3.75;1.15;;;;;;;;;;5037171;28;20057;-91
2024/01/12 14:48:58;;;;;;;1.25;0.98;;;;;;;;;;5036871;28;20053;-90
2024/01/12 14:51:28;;;;;;;2.15;1.13;;;;;;;;;;5037934;28;20403;-89
2024/01/12 14:54:02;;;;;;;2.00;1.13;;;;;;;;;;5037817;28;20048;-89
2024/01/12 14:56:33;;;;;;;4.75;1.42;;;;;;;;;;5037006;28;20057;-88
2024/01/12 14:59:05;;;;;;;1.98;1.27;;;;;;;;;;5037248;28;20056;-86
2024/01/12 15:01:35;;;;;;;4.40;1.15;;;;;;;;;;5073949;28;20040;-85
2024/01/12 15:04:08;;;;;;;1.50;0.95;;;;;;;;;;5060176;28;20040;-90
2024/01/12 15:06:48;;;;;;;2.30;1.00;;;;;;;;;;5042719;28;20048;-90
2024/01/12 15:09:19;;;;;;;4.35;1.15;;;;;;;;;;5050661;28;20144;-89
2024/01/12 15:11:50;;;;;;;4.30;1.30;;;;;;;;;;5076674;28;20068;-89
2024/01/12 15:14:21;;;;;;;3.78;1.00;;;;;;;;;;5071781;28;20058;-90
2024/01/12 15:16:52;;;;;;;1.55;0.90;;;;;;;;;;5070789;28;20048;-90
2024/01/12 15:19:26;;;;;;;3.15;1.10;;;;;;;;;;5081461;28;20048;-90
2024/01/12 15:21:56;;;;;;;3.45;0.98;;;;;;;;;;5078486;28;20051;-89
2024/01/12 15:24:30;;;;;;;2.05;0.98;;;;;;;;;;5074931;28;20052;-88
2024/01/12 15:27:07;;;;;;;2.10;0.90;;;;;;;;;;5060226;28;20053;-89
2024/01/12 15:29:44;;;;;;;4.18;1.10;;;;;;;;;;5058979;28;20055;-90
2024/01/12 15:32:16;;;;;;;1.98;0.90;;;;;;;;;;5075913;28;20044;-89
2024/01/12 15:34:46;;;;;;;3.40;1.15;;;;;;;;;;5076424;28;20490;-88
2024/01/12 15:37:18;;;;;;;;;;;;;;;;;;5076529;28;20048;-88
2024/01/12 15:39:49;;;;;;;1.70;1.02;;;;;;;;;;5059860;28;20290;-88
2024/01/12 15:42:19;;;;;;;2.15;1.08;;;;;;;;;;5092462;28;20048;-89
2024/01/12 15:44:57;;;;;;;1.40;0.90;;;;;;;;;;5027687;28;20091;-87
2024/01/12 15:47:28;;;;;;;3.17;0.90;;;;;;;;;;5050760;28;20060;-87
2024/01/12 15:50:00;;;;;;;1.65;1.10;;;;;;;;;;5037271;28;20053;-88
2024/01/12 15:52:30;;;;;;;2.75;1.05;;;;;;;;;;5018777;28;20060;-87
2024/01/12 15:55:02;;;;;;;1.20;0.80;;;;;;;;;;5019733;28;20064;-92
2024/01/12 15:57:32;;;;;;;3.65;0.90;;;;;;;;;;5035258;28;20063;-91
2024/01/12 16:00:04;;;;;;;1.42;0.95;;;;;;;;;;5053498;28;20081;-89
2024/01/12 16:02:34;;;;;;;2.15;0.98;;;;;;;;;;5054380;28;20052;-92
2024/01/12 16:05:08;;;;;;;4.35;1.13;;;;;;;;;;5038190;28;20049;-91
2024/01/12 16:07:40;;;;;;;2.30;1.20;;;;;;;;;;5036875;28;20052;-90
2024/01/12 16:10:15;;;;;;;2.85;1.30;;;;;;;;;;5034875;28;20056;-88
2024/01/12 16:12:47;;;;;;;2.42;1.30;;;;;;;;;;5019170;28;20053;-88
2024/01/12 16:15:19;;;;;;;3.72;1.33;;;;;;;;;;5036146;28;20472;-87
2024/01/12 16:17:51;;;;;;;3.10;1.35;;;;;;;;;;5047053;28;20052;-87
2024/01/12 16:20:24;;;;;;;1.98;1.25;;;;;;;;;;5058395;28;20151;-87
2024/01/12 16:22:56;;;;;;;5.70;1.42;;;;;;;;;;5038237;28;20490;-87
2024/01/12 16:25:26;;;;;;;3.75;1.48;;;;;;;;;;5038198;28;20063;-87
2024/01/12 16:27:57;;;;;;;6.80;1.45;;;;;;;;;;5054482;28;20044;-86
2024/01/12 16:30:30;;;;;;;4.13;1.30;;;;;;;;;;5055007;28;20052;-88
2024/01/12 16:33:02;;;;;;;3.15;1.50;;;;;;;;;;5053696;28;20048;-89
2024/01/12 16:35:35;;;;;;;3.15;1.48;;;;;;;;;;5071238;28;20541;-88
2024/01/12 16:38:09;;;;;;;6.47;1.50;;;;;;;;;;5058300;28;20040;-88
2024/01/12 16:40:39;;;;;;;2.88;1.38;;;;;;;;;;5049086;28;20511;-88
2024/01/12 16:43:12;;;;;;;5.30;1.58;;;;;;;;;;5055689;28;20049;-87
2024/01/12 16:45:45;;;;;;;3.30;1.50;;;;;;;;;;5054116;28;20084;-91
2024/01/12 16:48:21;;;;;;;1.65;1.27;;;;;;;;;;5040142;28;20144;-90
2024/01/12 16:50:52;;;;;;;2.47;1.30;;;;;;;;;;5038639;28;20413;-90
2024/01/12 16:53:23;;;;;;;4.82;1.13;;;;;;;;;;5057271;28;20407;-91
2024/01/12 16:55:53;;;;;;;2.78;1.30;;;;;;;;;;5036949;28;20063;-88
2024/01/12 16:58:23;;;;;;;3.13;1.77;;;;;;;;;;5071535;28;20063;-88
2024/01/12 17:00:54;;;;;;;4.05;1.55;;;;;;;;;;5053663;28;20057;-88
2024/01/12 17:03:24;;;;;;;3.03;1.40;;;;;;;;;;5038344;28;20061;-87